Terminal Aerodrome Forecast
Issued by NWS

Home | Current Version | Previous Version | Text Only | Print | Product List | Glossary On
Versions: 1 2 3 4 5 6 7 8 9 10 11 12 13 14 15 16 17 18 19 20 21
828
FTUS46 KSTO 172358 AAA
TAFMHR
TAF AMD
KMHR 172358Z 1800/1824 17005KT 4SM BR OVC009
     FM180400 16004KT 1/2SM FG OVC002
     FM182000 18009KT 3SM -RA BR OVC009=

USA.gov is the U.S. government's official web portal to all federal, state and local government web resources and services.